createdAt,value
2022-10-13T00:01:55.563Z,28.48
2022-10-13T00:06:59.180Z,23.35
2022-10-13T00:12:02.942Z,24.63
2022-10-13T00:17:06.681Z,26.13
2022-10-13T00:22:10.339Z,25.77
2022-10-13T00:27:13.951Z,27.52
2022-10-13T00:32:17.788Z,28.38
2022-10-13T00:37:23.405Z,26.05
2022-10-13T00:42:28.070Z,25.75
2022-10-13T00:47:56.745Z,25.92
2022-10-13T00:53:03.259Z,26.35
2022-10-13T00:58:11.393Z,25.52
2022-10-13T01:03:15.269Z,26.35
2022-10-13T01:08:20.736Z,27.00
2022-10-13T01:13:41.982Z,26.27
2022-10-13T01:19:00.669Z,27.05
2022-10-13T01:24:44.382Z,30.73
2022-10-13T01:30:07.521Z,28.05
2022-10-13T01:35:23.192Z,27.65
2022-10-13T01:40:33.159Z,27.58
2022-10-13T01:45:41.417Z,27.50
2022-10-13T01:50:47.749Z,28.20
2022-10-13T01:55:57.979Z,28.98
2022-10-13T02:01:18.781Z,29.23
2022-10-13T02:06:28.900Z,29.05
2022-10-13T02:11:34.443Z,28.25
2022-10-13T02:16:44.596Z,30.15
2022-10-13T02:21:52.804Z,26.77
2022-10-13T02:26:57.617Z,27.30
2022-10-13T02:32:01.944Z,26.92
2022-10-13T02:37:05.594Z,28.00
2022-10-13T02:42:09.410Z,30.38
2022-10-13T02:47:12.972Z,30.92
2022-10-13T02:52:16.589Z,27.67
2022-10-13T02:57:20.456Z,30.23
2022-10-13T03:02:24.404Z,29.38
2022-10-13T03:07:28.203Z,29.87
2022-10-13T03:12:32.379Z,30.25
2022-10-13T03:17:36.901Z,29.70
2022-10-13T03:22:43.947Z,29.30
2022-10-13T03:27:51.078Z,28.98
2022-10-13T03:32:54.997Z,29.42
2022-10-13T03:37:58.721Z,30.53
2022-10-13T03:43:02.352Z,30.83
2022-10-13T03:48:07.731Z,29.02
2022-10-13T03:53:14.309Z,27.55
2022-10-13T03:58:18.453Z,28.13
2022-10-13T04:03:34.456Z,28.63
2022-10-13T04:08:40.570Z,29.67
2022-10-13T04:13:45.256Z,27.80
2022-10-13T04:19:02.088Z,29.88
2022-10-13T04:24:06.805Z,28.83
2022-10-13T04:29:12.020Z,29.80
2022-10-13T04:34:16.125Z,28.67
2022-10-13T04:39:22.063Z,36.38
2022-10-13T04:44:25.895Z,33.70
2022-10-13T04:49:29.456Z,31.05
2022-10-13T04:54:32.918Z,32.05
2022-10-13T04:59:36.410Z,29.92
2022-10-13T05:04:40.133Z,30.00
2022-10-13T05:09:43.899Z,30.55
2022-10-13T05:14:47.299Z,31.88
2022-10-13T05:19:51.244Z,30.25
2022-10-13T05:24:54.924Z,35.40
2022-10-13T05:29:58.566Z,32.65
2022-10-13T05:35:02.045Z,34.70
2022-10-13T05:40:06.485Z,31.65
2022-10-13T05:45:11.923Z,34.30
2022-10-13T05:50:16.029Z,33.28
2022-10-13T05:55:20.886Z,32.58
2022-10-13T06:00:24.770Z,30.43
2022-10-13T06:05:28.913Z,32.95
2022-10-13T06:10:32.876Z,30.35
2022-10-13T06:15:36.561Z,31.43
2022-10-13T06:20:40.011Z,30.27
2022-10-13T06:25:50.825Z,31.42
2022-10-13T06:30:55.502Z,31.20
2022-10-13T06:41:06.588Z,29.98
2022-10-13T06:46:11.636Z,34.70
2022-10-13T06:51:15.649Z,29.55
2022-10-13T06:56:20.118Z,30.17
2022-10-13T07:01:24.141Z,33.65
2022-10-13T07:06:27.991Z,31.63
2022-10-13T07:11:32.499Z,31.50
2022-10-13T07:16:36.184Z,32.23
2022-10-13T07:21:39.900Z,30.80
2022-10-13T07:26:43.275Z,29.45
2022-10-13T07:31:47.612Z,33.17
2022-10-13T07:36:51.143Z,29.95
2022-10-13T07:41:54.838Z,31.85
2022-10-13T07:46:58.445Z,30.95
2022-10-13T07:52:02.608Z,30.38
2022-10-13T07:57:06.042Z,30.42
2022-10-13T08:02:10.927Z,29.45
2022-10-13T08:07:14.725Z,29.92
2022-10-13T08:12:18.662Z,32.10
2022-10-13T08:17:22.742Z,28.30
2022-10-13T08:22:28.634Z,27.67
2022-10-13T08:27:49.621Z,28.23
2022-10-13T08:32:54.435Z,28.33
2022-10-13T08:37:57.959Z,25.95
2022-10-13T08:43:01.687Z,27.75
2022-10-13T08:48:18.654Z,27.00
2022-10-13T08:53:32.181Z,25.92
2022-10-13T08:58:37.870Z,24.85
2022-10-13T09:04:09.175Z,26.42
2022-10-13T09:09:15.263Z,25.73
2022-10-13T09:14:23.057Z,24.27
2022-10-13T09:19:34.766Z,24.08
2022-10-13T09:24:38.227Z,24.08
2022-10-13T09:29:42.515Z,23.00
2022-10-13T09:34:46.802Z,23.25
2022-10-13T09:40:12.262Z,26.30
2022-10-13T09:45:20.171Z,22.88
2022-10-13T09:50:28.988Z,23.60
2022-10-13T09:55:35.673Z,22.52
2022-10-13T10:00:40.607Z,22.10
2022-10-13T10:05:56.698Z,24.45
2022-10-13T10:11:10.578Z,23.50
2022-10-13T10:16:32.281Z,27.13
2022-10-13T10:21:52.028Z,31.38
2022-10-13T10:27:02.629Z,23.02
2022-10-13T10:32:06.532Z,24.20
2022-10-13T10:37:38.177Z,23.58
2022-10-13T10:43:03.329Z,21.67
2022-10-13T10:48:22.281Z,23.15
2022-10-13T10:53:33.937Z,21.40
2022-10-13T10:59:01.712Z,21.10
2022-10-13T11:04:36.960Z,21.98
2022-10-13T11:09:43.815Z,20.98
2022-10-13T11:14:48.395Z,22.92
2022-10-13T11:19:52.319Z,22.35
2022-10-13T11:25:01.937Z,23.70
2022-10-13T11:30:26.812Z,21.00
2022-10-13T11:35:32.056Z,24.15
2022-10-13T11:40:38.589Z,19.98
2022-10-13T11:45:50.927Z,21.05
2022-10-13T11:51:33.620Z,19.52
2022-10-13T11:56:49.191Z,19.98
2022-10-13T12:02:12.218Z,20.05
2022-10-13T12:07:18.012Z,19.63
2022-10-13T12:12:23.516Z,19.60
2022-10-13T12:17:27.640Z,20.33
2022-10-13T12:22:31.599Z,19.30
2022-10-13T12:27:48.028Z,20.88
2022-10-13T12:32:57.796Z,19.52
2022-10-13T12:38:04.410Z,22.27
2022-10-13T12:43:08.418Z,18.38
2022-10-13T12:48:32.960Z,19.08
2022-10-13T12:53:40.087Z,20.00
2022-10-13T12:58:44.521Z,21.20
2022-10-13T13:03:55.926Z,24.08
2022-10-13T13:09:23.069Z,24.00
2022-10-13T13:14:51.854Z,20.58
2022-10-13T13:19:56.564Z,21.13
2022-10-13T13:25:01.118Z,22.58
2022-10-13T13:30:05.262Z,24.05
2022-10-13T13:40:18.297Z,19.67
2022-10-13T13:45:23.872Z,20.92
2022-10-13T13:50:33.037Z,23.50
2022-10-13T13:55:36.669Z,22.45
2022-10-13T14:00:40.107Z,23.45
2022-10-13T14:05:43.535Z,22.33
2022-10-13T14:10:47.066Z,23.55
2022-10-13T14:16:02.185Z,20.85
2022-10-13T14:21:08.022Z,21.13
2022-10-13T14:26:11.539Z,21.90
2022-10-13T14:31:15.050Z,25.73
2022-10-13T14:36:18.461Z,22.83
2022-10-13T14:46:26.266Z,22.50
2022-10-13T14:51:29.742Z,22.25
2022-10-13T14:56:34.104Z,24.33
2022-10-13T15:06:55.594Z,25.92
2022-10-13T15:11:59.209Z,25.83
2022-10-13T15:17:04.123Z,25.92
2022-10-13T15:22:07.570Z,26.77
2022-10-13T15:27:11.002Z,33.83
2022-10-13T15:32:19.104Z,26.70
2022-10-13T15:37:22.770Z,26.55
2022-10-13T15:42:26.308Z,26.40
2022-10-13T15:47:29.812Z,26.20
2022-10-13T15:52:35.189Z,25.90
2022-10-13T15:57:39.889Z,27.95
2022-10-13T16:02:45.497Z,27.48
2022-10-13T16:07:49.120Z,24.50
2022-10-13T16:12:52.781Z,26.57
2022-10-13T16:17:56.182Z,27.60
2022-10-13T16:22:59.674Z,25.80
2022-10-13T16:28:03.440Z,28.70
2022-10-13T16:33:07.093Z,27.90
2022-10-13T16:38:12.173Z,31.43
2022-10-13T16:43:17.370Z,36.65
2022-10-13T16:48:21.039Z,31.13
2022-10-13T16:53:24.734Z,34.50
2022-10-13T16:58:28.351Z,29.83
2022-10-13T17:03:31.762Z,28.15
2022-10-13T17:08:35.907Z,42.97
2022-10-13T17:13:39.937Z,34.65
2022-10-13T17:18:43.606Z,71.73
2022-10-13T17:23:48.873Z,45.03
2022-10-13T17:28:52.857Z,33.13
2022-10-13T17:33:56.504Z,31.58
2022-10-13T17:39:06.337Z,40.37
2022-10-13T17:44:11.527Z,28.58
2022-10-13T17:49:18.107Z,32.88
2022-10-13T17:54:22.268Z,27.15
2022-10-13T17:59:26.061Z,27.95
2022-10-13T18:04:31.224Z,32.73
2022-10-13T18:09:34.689Z,34.28
2022-10-13T18:14:38.424Z,33.75
2022-10-13T18:19:42.305Z,28.98
2022-10-13T18:24:47.560Z,34.10
2022-10-13T18:29:51.541Z,33.50
2022-10-13T18:34:57.222Z,32.85
2022-10-13T18:40:01.013Z,34.55
2022-10-13T18:45:04.956Z,31.93
2022-10-13T18:50:08.875Z,34.23
2022-10-13T18:55:12.393Z,36.57
2022-10-13T19:00:16.661Z,39.77
2022-10-13T19:05:20.891Z,35.17
2022-10-13T19:10:24.345Z,35.80
2022-10-13T19:15:27.902Z,37.60
2022-10-13T19:20:31.354Z,32.53
2022-10-13T19:25:34.901Z,32.38
2022-10-13T19:30:39.939Z,35.53
2022-10-13T19:35:46.599Z,36.53
2022-10-13T19:40:50.588Z,37.13
2022-10-13T19:45:58.875Z,35.07
2022-10-13T19:51:07.502Z,32.40
2022-10-13T19:56:24.219Z,36.40
2022-10-13T20:01:28.800Z,34.55
2022-10-13T20:06:32.285Z,33.25
2022-10-13T20:11:36.657Z,34.10
2022-10-13T20:16:40.506Z,37.28
2022-10-13T20:21:44.274Z,34.40
2022-10-13T20:26:48.880Z,35.42
2022-10-13T20:31:56.087Z,34.92
2022-10-13T20:36:59.741Z,38.47
2022-10-13T20:42:04.194Z,34.97
2022-10-13T20:47:07.939Z,36.65
2022-10-13T20:52:11.439Z,32.40
2022-10-13T20:57:14.981Z,35.33
2022-10-13T21:02:18.503Z,36.00
2022-10-13T21:07:22.425Z,38.05
2022-10-13T21:12:26.983Z,33.83
2022-10-13T21:17:32.798Z,36.33
2022-10-13T21:22:44.085Z,33.95
2022-10-13T21:27:48.075Z,35.22
2022-10-13T21:32:52.438Z,35.13
2022-10-13T21:38:16.172Z,34.22
2022-10-13T21:43:23.358Z,33.10
2022-10-13T21:48:33.881Z,32.63
2022-10-13T21:53:43.268Z,33.85
2022-10-13T21:58:57.501Z,34.92
2022-10-13T22:04:03.322Z,34.28
2022-10-13T22:09:07.561Z,35.42
2022-10-13T22:14:11.289Z,34.05
2022-10-13T22:19:16.168Z,35.28
2022-10-13T22:24:21.688Z,36.05
2022-10-13T22:29:26.114Z,36.20
2022-10-13T22:34:29.878Z,36.63
2022-10-13T22:39:33.346Z,36.53
2022-10-13T22:44:36.782Z,35.50
2022-10-13T22:49:40.268Z,37.42
2022-10-13T22:54:43.726Z,38.40
2022-10-13T22:59:47.407Z,42.17
2022-10-13T23:04:51.113Z,41.42
2022-10-13T23:09:54.564Z,41.88
2022-10-13T23:14:58.121Z,41.33
2022-10-13T23:20:11.603Z,37.85
2022-10-13T23:25:15.287Z,38.88
2022-10-13T23:30:20.175Z,53.05
2022-10-13T23:35:23.679Z,46.10
2022-10-13T23:40:27.494Z,37.95
2022-10-13T23:45:33.651Z,38.15
2022-10-13T23:50:37.554Z,41.88
2022-10-13T23:55:42.679Z,46.17
